createdAt,value
2018-01-08T00:01:20.261Z,1039.84
2018-01-08T00:02:47.332Z,1039.86
2018-01-08T00:04:14.220Z,1039.89
2018-01-08T00:05:41.698Z,1039.91
2018-01-08T00:07:08.841Z,1039.92
2018-01-08T00:08:35.918Z,1039.89
2018-01-08T00:10:02.951Z,1039.87
2018-01-08T00:11:30.177Z,1039.86
2018-01-08T00:12:57.235Z,1039.85
2018-01-08T00:14:24.369Z,1039.82
2018-01-08T00:15:51.224Z,1039.81
2018-01-08T00:17:18.040Z,1039.80
2018-01-08T00:18:45.013Z,1039.80
2018-01-08T00:20:12.086Z,1039.79
2018-01-08T00:21:39.270Z,1039.73
2018-01-08T00:23:06.423Z,1039.74
2018-01-08T00:24:33.077Z,1039.70
2018-01-08T00:25:59.999Z,1039.70
2018-01-08T00:27:27.065Z,1039.69
2018-01-08T00:28:54.225Z,1039.69
2018-01-08T00:30:21.300Z,1039.64
2018-01-08T00:31:48.246Z,1039.63
2018-01-08T00:33:15.130Z,1039.62
2018-01-08T00:34:42.222Z,1039.57
2018-01-08T00:36:09.533Z,1039.56
2018-01-08T00:37:36.547Z,1039.53
2018-01-08T00:39:03.235Z,1039.55
2018-01-08T00:40:30.230Z,1039.55
2018-01-08T00:41:57.705Z,1039.54
2018-01-08T00:43:24.453Z,1039.61
2018-01-08T00:44:51.297Z,1039.61
2018-01-08T00:46:18.602Z,1039.64
2018-01-08T00:47:45.452Z,1039.61
2018-01-08T00:49:12.821Z,1039.57
2018-01-08T00:50:40.161Z,1039.57
2018-01-08T00:52:07.484Z,1039.58
2018-01-08T00:53:34.777Z,1039.65
2018-01-08T00:55:01.582Z,1039.69
2018-01-08T00:56:28.880Z,1039.73
2018-01-08T00:57:55.961Z,1039.76
2018-01-08T00:59:23.077Z,1039.73
2018-01-08T01:00:50.075Z,1039.73
2018-01-08T01:02:17.019Z,1039.68
2018-01-08T01:03:44.080Z,1039.65
2018-01-08T01:05:11.199Z,1039.61
2018-01-08T01:06:38.522Z,1039.59
2018-01-08T01:08:05.549Z,1039.61
2018-01-08T01:09:32.254Z,1039.59
2018-01-08T01:10:59.368Z,1039.59
2018-01-08T01:12:26.447Z,1039.57
2018-01-08T01:13:53.469Z,1039.55
2018-01-08T01:15:20.485Z,1039.53
2018-01-08T01:16:47.543Z,1039.51
2018-01-08T01:18:14.505Z,1039.52
2018-01-08T01:19:42.038Z,1039.54
2018-01-08T01:21:08.928Z,1039.57
2018-01-08T01:22:36.244Z,1039.57
2018-01-08T01:24:02.933Z,1039.59
2018-01-08T01:25:29.885Z,1039.59
2018-01-08T01:26:57.093Z,1039.61
2018-01-08T01:28:24.300Z,1039.65
2018-01-08T01:29:51.071Z,1039.65
2018-01-08T01:31:17.989Z,1039.61
2018-01-08T01:32:44.883Z,1039.57
2018-01-08T01:34:11.898Z,1039.57
2018-01-08T01:35:39.075Z,1039.57
2018-01-08T01:37:06.423Z,1039.61
2018-01-08T01:38:32.995Z,1039.61
2018-01-08T01:40:00.191Z,1039.62
2018-01-08T01:41:27.395Z,1039.65
2018-01-08T01:42:54.458Z,1039.66
2018-01-08T01:44:21.301Z,1039.69
2018-01-08T01:45:48.189Z,1039.67
2018-01-08T01:47:15.183Z,1039.70
2018-01-08T01:48:42.363Z,1039.71
2018-01-08T01:50:09.490Z,1039.71
2018-01-08T01:51:36.966Z,1039.72
2018-01-08T01:53:03.256Z,1039.70
2018-01-08T01:54:30.470Z,1039.71
2018-01-08T01:55:57.374Z,1039.66
2018-01-08T01:57:24.430Z,1039.66
2018-01-08T01:58:51.266Z,1039.66
2018-01-08T02:00:18.200Z,1039.66
2018-01-08T02:01:44.907Z,1039.65
2018-01-08T02:03:12.071Z,1039.62
2018-01-08T02:04:39.171Z,1039.64
2018-01-08T02:06:07.452Z,1039.65
2018-01-08T02:07:33.065Z,1039.65
2018-01-08T02:09:00.211Z,1039.66
2018-01-08T02:10:27.201Z,1039.68
2018-01-08T02:11:54.236Z,1039.71
2018-01-08T02:13:21.178Z,1039.73
2018-01-08T02:14:47.938Z,1039.75
2018-01-08T02:16:14.760Z,1039.78
2018-01-08T02:17:41.929Z,1039.78
2018-01-08T02:19:08.974Z,1039.79
2018-01-08T02:20:36.406Z,1039.82
2018-01-08T02:22:03.022Z,1039.87
2018-01-08T02:23:30.164Z,1039.91
2018-01-08T02:24:58.045Z,1039.95
2018-01-08T02:26:24.456Z,1040.02
2018-01-08T02:27:51.518Z,1040.04
2018-01-08T02:29:18.468Z,1040.07
2018-01-08T02:30:45.499Z,1040.08
2018-01-08T02:32:12.481Z,1040.06
2018-01-08T02:33:39.947Z,1040.03
2018-01-08T02:35:06.920Z,1040.01
2018-01-08T02:36:34.025Z,1040.03
2018-01-08T02:38:00.805Z,1040.01
2018-01-08T02:39:27.734Z,1039.99
2018-01-08T02:40:55.022Z,1039.95
2018-01-08T02:42:21.782Z,1039.90
2018-01-08T02:43:48.902Z,1039.88
2018-01-08T02:45:15.922Z,1039.86
2018-01-08T02:46:42.932Z,1039.88
2018-01-08T02:48:09.971Z,1039.88
2018-01-08T02:49:37.593Z,1039.84
2018-01-08T02:51:05.053Z,1039.81
2018-01-08T02:52:31.251Z,1039.76
2018-01-08T02:53:58.319Z,1039.75
2018-01-08T02:55:25.292Z,1039.73
2018-01-08T02:56:52.202Z,1039.74
2018-01-08T02:58:19.268Z,1039.73
2018-01-08T02:59:46.473Z,1039.72
2018-01-08T03:01:13.172Z,1039.73
2018-01-08T03:02:40.594Z,1039.72
2018-01-08T03:04:07.494Z,1039.70
2018-01-08T03:05:34.636Z,1039.68
2018-01-08T03:07:01.072Z,1039.65
2018-01-08T03:08:28.138Z,1039.65
2018-01-08T03:09:55.473Z,1039.64
2018-01-08T03:11:22.243Z,1039.65
2018-01-08T03:12:49.203Z,1039.67
2018-01-08T03:14:16.030Z,1039.64
2018-01-08T03:15:42.923Z,1039.63
2018-01-08T03:17:10.265Z,1039.61
2018-01-08T03:18:37.354Z,1039.61
2018-01-08T03:20:04.520Z,1039.58
2018-01-08T03:21:31.238Z,1039.53
2018-01-08T03:22:58.266Z,1039.46
2018-01-08T03:24:25.608Z,1039.45
2018-01-08T03:25:52.318Z,1039.47
2018-01-08T03:27:19.142Z,1039.55
2018-01-08T03:28:46.156Z,1039.58
2018-01-08T03:30:12.928Z,1039.67
2018-01-08T03:31:40.025Z,1039.78
2018-01-08T03:33:07.496Z,1039.83
2018-01-08T03:34:33.772Z,1039.84
2018-01-08T03:36:00.571Z,1039.83
2018-01-08T03:37:27.478Z,1039.85
2018-01-08T03:38:54.495Z,1039.83
2018-01-08T03:40:21.365Z,1039.82
2018-01-08T03:41:48.513Z,1039.80
2018-01-08T03:43:15.392Z,1039.76
2018-01-08T03:44:42.267Z,1039.76
2018-01-08T03:46:09.392Z,1039.79
2018-01-08T03:47:36.270Z,1039.77
2018-01-08T03:49:03.045Z,1039.79
2018-01-08T03:50:30.345Z,1039.80
2018-01-08T03:51:57.495Z,1039.81
2018-01-08T03:53:24.727Z,1039.81
2018-01-08T03:54:51.400Z,1039.84
2018-01-08T03:56:18.249Z,1039.84
2018-01-08T03:57:45.171Z,1039.83
2018-01-08T03:59:12.447Z,1039.79
2018-01-08T04:00:39.271Z,1039.75
2018-01-08T04:02:06.380Z,1039.73
2018-01-08T04:03:33.140Z,1039.74
2018-01-08T04:05:00.068Z,1039.78
2018-01-08T04:06:27.336Z,1039.83
2018-01-08T04:07:54.590Z,1039.91
2018-01-08T04:09:21.323Z,1039.93
2018-01-08T04:10:48.197Z,1039.91
2018-01-08T04:12:14.978Z,1039.95
2018-01-08T04:13:42.135Z,1039.95
2018-01-08T04:15:09.298Z,1039.96
2018-01-08T04:16:36.528Z,1039.98
2018-01-08T04:18:03.414Z,1039.98
2018-01-08T04:19:30.447Z,1039.93
2018-01-08T04:20:57.638Z,1039.90
2018-01-08T04:22:24.462Z,1039.89
2018-01-08T04:23:51.294Z,1039.89
2018-01-08T04:25:17.970Z,1039.86
2018-01-08T04:26:44.877Z,1039.87
2018-01-08T04:28:12.101Z,1039.86
2018-01-08T04:29:38.812Z,1039.87
2018-01-08T04:31:05.895Z,1039.86
2018-01-08T04:32:32.769Z,1039.83
2018-01-08T04:33:59.679Z,1039.85
2018-01-08T04:35:26.574Z,1039.89
2018-01-08T04:36:53.500Z,1039.90
2018-01-08T04:38:20.409Z,1039.89
2018-01-08T04:39:47.370Z,1039.93
2018-01-08T04:41:14.324Z,1039.96
2018-01-08T04:42:41.379Z,1039.97
2018-01-08T04:44:08.473Z,1039.96
2018-01-08T04:45:36.041Z,1039.97
2018-01-08T04:47:02.140Z,1039.93
2018-01-08T04:48:29.167Z,1039.91
2018-01-08T04:49:56.293Z,1039.87
2018-01-08T04:51:23.232Z,1039.85
2018-01-08T04:52:50.105Z,1039.82
2018-01-08T04:54:17.098Z,1039.77
2018-01-08T04:55:44.044Z,1039.76
2018-01-08T04:57:11.093Z,1039.67
2018-01-08T04:58:38.716Z,1039.66
2018-01-08T05:00:05.566Z,1039.62
2018-01-08T05:01:31.889Z,1039.59
2018-01-08T05:02:58.979Z,1039.54
2018-01-08T05:04:26.394Z,1039.48
2018-01-08T05:05:52.567Z,1039.48
2018-01-08T05:07:19.559Z,1039.55
2018-01-08T05:08:46.594Z,1039.61
2018-01-08T05:10:13.619Z,1039.63
2018-01-08T05:11:40.991Z,1039.63
2018-01-08T05:13:07.965Z,1039.62
2018-01-08T05:14:35.046Z,1039.60
2018-01-08T05:16:01.602Z,1039.57
2018-01-08T05:17:28.740Z,1039.51
2018-01-08T05:18:55.875Z,1039.46
2018-01-08T05:20:22.609Z,1039.42
2018-01-08T05:21:49.568Z,1039.45
2018-01-08T05:23:16.658Z,1039.52
2018-01-08T05:24:43.796Z,1039.59
2018-01-08T05:26:10.933Z,1039.59
2018-01-08T05:27:38.094Z,1039.55
2018-01-08T05:29:05.087Z,1039.57
2018-01-08T05:30:31.994Z,1039.55
2018-01-08T05:31:59.354Z,1039.51
2018-01-08T05:33:26.032Z,1039.51
2018-01-08T05:34:52.884Z,1039.51
2018-01-08T05:36:19.758Z,1039.53
2018-01-08T05:37:46.656Z,1039.54
2018-01-08T05:39:13.570Z,1039.56
2018-01-08T05:40:40.777Z,1039.56
2018-01-08T05:42:08.083Z,1039.60
2018-01-08T05:43:35.259Z,1039.61
2018-01-08T05:45:02.033Z,1039.63
2018-01-08T05:46:28.993Z,1039.60
2018-01-08T05:47:56.462Z,1039.61
2018-01-08T05:49:22.826Z,1039.64
2018-01-08T05:50:50.122Z,1039.70
2018-01-08T05:52:16.876Z,1039.69
2018-01-08T05:53:43.770Z,1039.66
2018-01-08T05:55:10.908Z,1039.60
2018-01-08T05:56:38.283Z,1039.59
2018-01-08T05:58:05.431Z,1039.60
2018-01-08T05:59:31.772Z,1039.61
2018-01-08T06:00:59.187Z,1039.62
2018-01-08T06:02:25.591Z,1039.60
2018-01-08T06:03:52.474Z,1039.62
2018-01-08T06:05:19.232Z,1039.66
2018-01-08T06:06:46.223Z,1039.70
2018-01-08T06:08:13.147Z,1039.65
2018-01-08T06:09:40.307Z,1039.65
2018-01-08T06:11:08.748Z,1039.74
2018-01-08T06:12:34.192Z,1039.73
2018-01-08T06:14:01.000Z,1039.74
2018-01-08T06:15:28.144Z,1039.75
2018-01-08T06:16:54.945Z,1039.78
2018-01-08T06:18:21.725Z,1039.82
2018-01-08T06:19:48.910Z,1039.85
2018-01-08T06:21:15.869Z,1039.85
2018-01-08T06:22:42.918Z,1039.91
2018-01-08T06:24:09.943Z,1039.96
2018-01-08T06:25:37.043Z,1039.98
2018-01-08T06:27:03.770Z,1040.00
2018-01-08T06:28:30.700Z,1040.00
2018-01-08T06:29:57.695Z,1040.03
2018-01-08T06:31:24.824Z,1040.09
2018-01-08T06:32:51.659Z,1040.07
2018-01-08T06:34:18.679Z,1040.08
2018-01-08T06:35:45.740Z,1040.06
2018-01-08T06:37:12.745Z,1040.04
2018-01-08T06:38:39.853Z,1040.03
2018-01-08T06:40:06.925Z,1040.02
2018-01-08T06:41:33.559Z,1040.07
2018-01-08T06:43:00.659Z,1040.08
2018-01-08T06:44:27.852Z,1040.06
2018-01-08T06:45:55.053Z,1040.10
2018-01-08T06:47:21.776Z,1040.11
2018-01-08T06:48:48.705Z,1040.08
2018-01-08T06:50:15.618Z,1040.13
2018-01-08T06:51:42.778Z,1040.16
2018-01-08T06:53:10.064Z,1040.13
2018-01-08T06:54:37.156Z,1040.09
2018-01-08T06:56:03.803Z,1040.06
2018-01-08T06:57:30.813Z,1040.06
2018-01-08T06:58:58.218Z,1040.07
2018-01-08T07:00:24.615Z,1040.10
2018-01-08T07:01:51.741Z,1040.11
2018-01-08T07:03:18.639Z,1040.07
2018-01-08T07:04:45.671Z,1040.04
2018-01-08T07:06:12.523Z,1040.08
2018-01-08T07:07:39.550Z,1040.09
2018-01-08T07:09:07.184Z,1040.08
2018-01-08T07:10:33.508Z,1040.13
2018-01-08T07:12:00.457Z,1040.13
2018-01-08T07:13:27.552Z,1040.21
2018-01-08T07:14:54.549Z,1040.19
2018-01-08T07:16:21.599Z,1040.20
2018-01-08T07:17:48.631Z,1040.20
2018-01-08T07:19:15.639Z,1040.21
2018-01-08T07:20:42.760Z,1040.21
2018-01-08T07:22:10.218Z,1040.20
2018-01-08T07:23:37.284Z,1040.18
2018-01-08T07:25:04.488Z,1040.21
2018-01-08T07:26:31.087Z,1040.25
2018-01-08T07:27:58.203Z,1040.28
2018-01-08T07:29:25.601Z,1040.29
2018-01-08T07:30:52.099Z,1040.24
2018-01-08T07:32:19.221Z,1040.24
2018-01-08T07:33:45.973Z,1040.25
2018-01-08T07:35:12.784Z,1040.27
2018-01-08T07:36:40.224Z,1040.30
2018-01-08T07:38:07.487Z,1040.28
2018-01-08T07:39:35.521Z,1040.34
2018-01-08T07:41:01.272Z,1040.41
2018-01-08T07:42:28.269Z,1040.45
2018-01-08T07:43:55.317Z,1040.45
2018-01-08T07:45:22.034Z,1040.48
2018-01-08T07:46:49.093Z,1040.50
2018-01-08T07:48:15.901Z,1040.52
2018-01-08T07:49:42.802Z,1040.51
2018-01-08T07:51:17.634Z,1040.49
2018-01-08T07:52:37.288Z,1040.52
2018-01-08T07:54:03.830Z,1040.53
2018-01-08T07:55:30.765Z,1040.53
2018-01-08T07:56:58.098Z,1040.51
2018-01-08T07:58:25.036Z,1040.51
2018-01-08T07:59:52.160Z,1040.55
2018-01-08T08:01:19.265Z,1040.58
2018-01-08T08:02:46.134Z,1040.57
2018-01-08T08:04:13.173Z,1040.52
2018-01-08T08:05:40.271Z,1040.47
2018-01-08T08:07:07.829Z,1040.41
2018-01-08T08:08:34.573Z,1040.38
2018-01-08T08:10:01.471Z,1040.36
2018-01-08T08:11:28.418Z,1040.39
2018-01-08T08:12:55.541Z,1040.42
2018-01-08T08:14:22.593Z,1040.46
2018-01-08T08:15:49.392Z,1040.39
2018-01-08T08:17:16.133Z,1040.38
2018-01-08T08:18:42.909Z,1040.43
2018-01-08T08:20:10.488Z,1040.44
2018-01-08T08:21:37.295Z,1040.39
2018-01-08T08:23:03.798Z,1040.37
2018-01-08T08:24:30.820Z,1040.37
2018-01-08T08:25:57.905Z,1040.47
2018-01-08T08:27:25.200Z,1040.51
2018-01-08T08:28:52.005Z,1040.53
2018-01-08T08:30:18.985Z,1040.54
2018-01-08T08:31:45.992Z,1040.49
2018-01-08T08:33:13.011Z,1040.52
2018-01-08T08:34:39.788Z,1040.55
2018-01-08T08:36:06.985Z,1040.56
2018-01-08T08:37:33.352Z,1040.54
2018-01-08T08:39:00.540Z,1040.57
2018-01-08T08:40:27.541Z,1040.61
2018-01-08T08:41:54.632Z,1040.63
2018-01-08T08:43:21.524Z,1040.62
2018-01-08T08:44:48.741Z,1040.60
2018-01-08T08:46:15.699Z,1040.59
2018-01-08T08:47:42.552Z,1040.60
2018-01-08T08:49:09.992Z,1040.57
2018-01-08T08:50:36.959Z,1040.58
2018-01-08T08:52:03.828Z,1040.54
2018-01-08T08:53:30.837Z,1040.54
2018-01-08T08:54:57.607Z,1040.57
2018-01-08T08:56:24.695Z,1040.57
2018-01-08T08:57:51.453Z,1040.54
2018-01-08T08:59:18.433Z,1040.56
2018-01-08T09:00:45.226Z,1040.58
2018-01-08T09:02:11.985Z,1040.58
2018-01-08T09:03:39.154Z,1040.55
2018-01-08T09:05:06.208Z,1040.53
2018-01-08T09:06:33.065Z,1040.56
2018-01-08T09:07:59.978Z,1040.61
2018-01-08T09:09:27.197Z,1040.63
2018-01-08T09:10:54.204Z,1040.61
2018-01-08T09:12:20.951Z,1040.60
2018-01-08T09:13:47.813Z,1040.58
2018-01-08T09:15:15.076Z,1040.60
2018-01-08T09:16:42.148Z,1040.60
2018-01-08T09:18:09.261Z,1040.59
2018-01-08T09:19:36.426Z,1040.60
2018-01-08T09:21:03.195Z,1040.61
2018-01-08T09:22:30.357Z,1040.63
2018-01-08T09:23:57.256Z,1040.64
2018-01-08T09:25:24.465Z,1040.65
2018-01-08T09:26:51.200Z,1040.68
2018-01-08T09:28:17.897Z,1040.67
2018-01-08T09:29:44.865Z,1040.68
2018-01-08T09:31:11.726Z,1040.70
2018-01-08T09:32:39.007Z,1040.72
2018-01-08T09:34:05.963Z,1040.77
2018-01-08T09:35:33.022Z,1040.78
2018-01-08T09:37:00.259Z,1040.80
2018-01-08T09:38:27.209Z,1040.75
2018-01-08T09:39:54.337Z,1040.75
2018-01-08T09:41:21.282Z,1040.76
2018-01-08T09:42:48.075Z,1040.79
2018-01-08T09:44:15.227Z,1040.81
2018-01-08T09:45:42.327Z,1040.81
2018-01-08T09:47:09.671Z,1040.79
2018-01-08T09:48:36.444Z,1040.78
2018-01-08T09:50:03.111Z,1040.79
2018-01-08T09:51:30.103Z,1040.75
2018-01-08T09:52:57.631Z,1040.74
2018-01-08T09:54:24.319Z,1040.77
2018-01-08T09:55:51.425Z,1040.77
2018-01-08T09:57:18.459Z,1040.75
2018-01-08T09:58:45.216Z,1040.69
2018-01-08T10:00:12.387Z,1040.68
2018-01-08T10:01:39.481Z,1040.68
2018-01-08T10:03:06.804Z,1040.60
2018-01-08T10:04:33.326Z,1040.58
2018-01-08T10:06:00.414Z,1040.59
2018-01-08T10:07:27.438Z,1040.59
2018-01-08T10:08:54.593Z,1040.58
2018-01-08T10:10:21.493Z,1040.53
2018-01-08T10:11:48.551Z,1040.48
2018-01-08T10:13:15.768Z,1040.45
2018-01-08T10:14:42.762Z,1040.38
2018-01-08T10:16:09.867Z,1040.37
2018-01-08T10:17:36.844Z,1040.35
2018-01-08T10:19:03.652Z,1040.36
2018-01-08T10:20:30.643Z,1040.37
2018-01-08T10:21:57.639Z,1040.36
2018-01-08T10:23:24.737Z,1040.32
2018-01-08T10:24:51.783Z,1040.28
2018-01-08T10:26:18.641Z,1040.28
2018-01-08T10:27:45.638Z,1040.29
2018-01-08T10:29:12.671Z,1040.28
2018-01-08T10:30:39.917Z,1040.29
2018-01-08T10:32:07.023Z,1040.25
2018-01-08T10:33:35.105Z,1040.21
2018-01-08T10:35:01.065Z,1040.19
2018-01-08T10:36:28.106Z,1040.19
2018-01-08T10:37:55.397Z,1040.21
2018-01-08T10:39:22.349Z,1040.22
2018-01-08T10:40:49.461Z,1040.22
2018-01-08T10:42:16.280Z,1040.18
2018-01-08T10:43:43.455Z,1040.11
2018-01-08T10:45:10.767Z,1040.05
2018-01-08T10:46:38.245Z,1040.03
2018-01-08T10:48:05.269Z,1039.99
2018-01-08T10:49:32.175Z,1039.99
2018-01-08T10:50:59.201Z,1040.02
2018-01-08T10:52:26.680Z,1039.99
2018-01-08T10:53:53.977Z,1039.97
2018-01-08T10:55:21.197Z,1039.91
2018-01-08T10:56:48.276Z,1039.88
2018-01-08T10:58:15.506Z,1039.86
2018-01-08T10:59:42.501Z,1039.86
2018-01-08T11:01:09.557Z,1039.81
2018-01-08T11:02:36.897Z,1039.75
2018-01-08T11:04:03.573Z,1039.71
2018-01-08T11:05:30.769Z,1039.69
2018-01-08T11:06:58.091Z,1039.72
2018-01-08T11:08:25.154Z,1039.74
2018-01-08T11:09:52.205Z,1039.72
2018-01-08T11:11:18.985Z,1039.67
2018-01-08T11:12:46.027Z,1039.66
2018-01-08T11:14:13.230Z,1039.67
2018-01-08T11:15:40.548Z,1039.67
2018-01-08T11:17:07.951Z,1039.66
2018-01-08T11:18:35.133Z,1039.64
2018-01-08T11:20:01.968Z,1039.61
2018-01-08T11:21:28.952Z,1039.59
2018-01-08T11:22:56.288Z,1039.51
2018-01-08T11:24:23.134Z,1039.50
2018-01-08T11:25:50.205Z,1039.50
2018-01-08T11:27:17.377Z,1039.51
2018-01-08T11:28:44.440Z,1039.50
2018-01-08T11:30:12.235Z,1039.49
2018-01-08T11:31:39.515Z,1039.45
2018-01-08T11:33:06.311Z,1039.44
2018-01-08T11:34:32.425Z,1039.41
2018-01-08T11:35:59.518Z,1039.40
2018-01-08T11:37:26.466Z,1039.38
2018-01-08T11:38:53.526Z,1039.39
2018-01-08T11:40:20.542Z,1039.33
2018-01-08T11:41:47.326Z,1039.26
2018-01-08T11:43:14.555Z,1039.20
2018-01-08T11:44:41.807Z,1039.17
2018-01-08T11:46:08.960Z,1039.20
2018-01-08T11:47:35.941Z,1039.20
2018-01-08T11:49:03.168Z,1039.21
2018-01-08T11:50:30.359Z,1039.17
2018-01-08T11:51:57.567Z,1039.15
2018-01-08T11:53:24.654Z,1039.09
2018-01-08T11:54:51.338Z,1039.04
2018-01-08T11:56:18.225Z,1039.05
2018-01-08T11:57:45.448Z,1039.02
2018-01-08T11:59:12.737Z,1039.04
2018-01-08T12:00:40.069Z,1039.01
2018-01-08T12:02:07.300Z,1039.00
2018-01-08T12:03:34.376Z,1038.98
2018-01-08T12:05:01.362Z,1039.00
2018-01-08T12:06:28.273Z,1038.97
2018-01-08T12:07:55.814Z,1038.99
2018-01-08T12:09:22.415Z,1038.97
2018-01-08T12:10:49.774Z,1038.95
2018-01-08T12:12:16.767Z,1038.91
2018-01-08T12:13:43.721Z,1038.93
2018-01-08T12:15:10.934Z,1038.97
2018-01-08T12:16:39.056Z,1039.00
2018-01-08T12:18:05.271Z,1038.98
2018-01-08T12:19:32.230Z,1038.98
2018-01-08T12:20:59.565Z,1038.97
2018-01-08T12:22:26.657Z,1038.96
2018-01-08T12:23:53.735Z,1038.97
2018-01-08T12:25:20.742Z,1038.93
2018-01-08T12:26:47.714Z,1038.89
2018-01-08T12:28:14.754Z,1038.88
2018-01-08T12:29:41.890Z,1038.86
2018-01-08T12:31:09.043Z,1038.84
2018-01-08T12:32:36.380Z,1038.81
2018-01-08T12:34:03.069Z,1038.77
2018-01-08T12:35:30.317Z,1038.76
2018-01-08T12:36:57.903Z,1038.72
2018-01-08T12:38:24.668Z,1038.73
2018-01-08T12:39:51.728Z,1038.77
2018-01-08T12:41:18.719Z,1038.81
2018-01-08T12:42:45.680Z,1038.81
2018-01-08T12:44:13.207Z,1038.77
2018-01-08T12:45:39.825Z,1038.76
2018-01-08T12:47:07.349Z,1038.76
2018-01-08T12:48:35.732Z,1038.76
2018-01-08T12:50:01.481Z,1038.72
2018-01-08T12:51:28.889Z,1038.69
2018-01-08T12:52:55.830Z,1038.67
2018-01-08T12:54:22.661Z,1038.69
2018-01-08T12:55:49.886Z,1038.68
2018-01-08T12:57:16.961Z,1038.67
2018-01-08T12:58:43.920Z,1038.63
2018-01-08T13:00:11.150Z,1038.61
2018-01-08T13:01:38.278Z,1038.58
2018-01-08T13:03:05.309Z,1038.55
2018-01-08T13:04:32.088Z,1038.51
2018-01-08T13:05:59.380Z,1038.52
2018-01-08T13:07:26.291Z,1038.54
2018-01-08T13:08:53.395Z,1038.54
2018-01-08T13:10:20.512Z,1038.52
2018-01-08T13:11:47.729Z,1038.51
2018-01-08T13:13:14.727Z,1038.48
2018-01-08T13:14:42.360Z,1038.48
2018-01-08T13:16:10.103Z,1038.47
2018-01-08T13:17:36.952Z,1038.47
2018-01-08T13:19:03.472Z,1038.48
2018-01-08T13:20:30.706Z,1038.45
2018-01-08T13:21:57.771Z,1038.48
2018-01-08T13:23:24.947Z,1038.49
2018-01-08T13:24:51.857Z,1038.51
2018-01-08T13:26:18.826Z,1038.52
2018-01-08T13:27:45.695Z,1038.52
2018-01-08T13:29:13.051Z,1038.53
2018-01-08T13:30:39.998Z,1038.53
2018-01-08T13:32:07.602Z,1038.54
2018-01-08T13:33:34.574Z,1038.54
2018-01-08T13:35:01.522Z,1038.56
2018-01-08T13:36:28.728Z,1038.56
2018-01-08T13:37:55.996Z,1038.57
2018-01-08T13:39:22.942Z,1038.59
2018-01-08T13:40:49.666Z,1038.56
2018-01-08T13:43:44.042Z,1038.55
2018-01-08T13:45:11.286Z,1038.55
2018-01-08T13:46:38.507Z,1038.56
2018-01-08T13:48:06.150Z,1038.55
2018-01-08T13:49:32.547Z,1038.51
2018-01-08T13:50:59.693Z,1038.50
2018-01-08T13:52:27.090Z,1038.47
2018-01-08T13:53:54.182Z,1038.48
2018-01-08T13:55:21.203Z,1038.53
2018-01-08T13:56:48.325Z,1038.54
2018-01-08T13:58:15.420Z,1038.55
2018-01-08T13:59:42.720Z,1038.58
2018-01-08T14:01:10.236Z,1038.58
2018-01-08T14:02:37.025Z,1038.56
2018-01-08T14:04:03.943Z,1038.58
2018-01-08T14:05:30.931Z,1038.61
2018-01-08T14:06:58.538Z,1038.64
2018-01-08T14:08:25.236Z,1038.65
2018-01-08T14:09:52.363Z,1038.66
2018-01-08T14:11:19.424Z,1038.69
2018-01-08T14:12:46.677Z,1038.72
2018-01-08T14:14:13.407Z,1038.75
2018-01-08T14:15:41.124Z,1038.78
2018-01-08T14:17:08.602Z,1038.84
2018-01-08T14:18:35.464Z,1038.88
2018-01-08T14:20:02.103Z,1038.89
2018-01-08T14:21:29.652Z,1038.87
2018-01-08T14:22:56.870Z,1038.87
2018-01-08T14:24:23.564Z,1038.86
2018-01-08T14:25:50.523Z,1038.85
2018-01-08T14:27:17.482Z,1038.87
2018-01-08T14:28:44.599Z,1038.90
2018-01-08T14:30:11.692Z,1038.87
2018-01-08T14:31:39.278Z,1038.86
2018-01-08T14:33:06.091Z,1038.87
2018-01-08T14:34:32.937Z,1038.91
2018-01-08T14:36:00.110Z,1038.96
2018-01-08T14:37:27.246Z,1039.00
2018-01-08T14:38:54.276Z,1039.03
2018-01-08T14:40:21.307Z,1039.00
2018-01-08T14:41:48.397Z,1038.99
2018-01-08T14:43:15.460Z,1039.01
2018-01-08T14:44:42.641Z,1039.02
2018-01-08T14:46:10.114Z,1039.02
2018-01-08T14:47:37.843Z,1039.02
2018-01-08T14:49:05.645Z,1039.03
2018-01-08T14:50:31.382Z,1039.05
2018-01-08T14:51:58.539Z,1039.06
2018-01-08T14:53:26.292Z,1039.07
2018-01-08T14:54:52.822Z,1039.07
2018-01-08T14:56:19.713Z,1039.08
2018-01-08T14:57:46.602Z,1039.05
2018-01-08T14:59:13.541Z,1039.06
2018-01-08T15:00:40.776Z,1039.06
2018-01-08T15:02:08.415Z,1039.03
2018-01-08T15:03:35.831Z,1039.03
2018-01-08T15:05:02.379Z,1039.01
2018-01-08T15:06:29.369Z,1039.02
2018-01-08T15:07:56.712Z,1039.01
2018-01-08T15:09:24.135Z,1039.03
2018-01-08T15:10:51.046Z,1039.06
2018-01-08T15:12:17.926Z,1039.06
2018-01-08T15:13:44.873Z,1039.03
2018-01-08T15:15:12.150Z,1039.02
2018-01-08T15:16:39.436Z,1039.04
2018-01-08T15:18:06.475Z,1039.04
2018-01-08T15:19:33.590Z,1039.06
2018-01-08T15:21:00.604Z,1039.05
2018-01-08T15:22:27.775Z,1039.08
2018-01-08T15:23:54.744Z,1039.10
2018-01-08T15:25:21.448Z,1039.08
2018-01-08T15:26:48.529Z,1039.10
2018-01-08T15:28:15.837Z,1039.11
2018-01-08T15:29:43.022Z,1039.11
2018-01-08T15:31:10.082Z,1039.10
2018-01-08T15:32:36.989Z,1039.10
2018-01-08T15:34:04.009Z,1039.09
2018-01-08T15:35:31.005Z,1039.06
2018-01-08T15:36:58.249Z,1039.06
2018-01-08T15:38:25.525Z,1039.07
2018-01-08T15:39:52.644Z,1039.05
2018-01-08T15:41:19.717Z,1039.06
2018-01-08T15:42:46.894Z,1039.05
2018-01-08T15:44:13.839Z,1039.01
2018-01-08T15:45:41.094Z,1039.00
2018-01-08T15:47:07.931Z,1039.01
2018-01-08T15:48:35.165Z,1038.98
2018-01-08T15:50:02.259Z,1039.02
2018-01-08T15:51:29.266Z,1038.99
2018-01-08T15:52:56.446Z,1038.97
2018-01-08T15:54:23.472Z,1038.96
2018-01-08T15:55:50.253Z,1038.94
2018-01-08T15:57:17.223Z,1038.90
2018-01-08T15:58:44.169Z,1038.91
2018-01-08T16:00:11.560Z,1038.93
2018-01-08T16:01:38.634Z,1038.93
2018-01-08T16:03:06.100Z,1038.95
2018-01-08T16:04:32.720Z,1038.97
2018-01-08T16:05:59.788Z,1038.97
2018-01-08T16:07:27.413Z,1038.98
2018-01-08T16:08:53.964Z,1038.97
2018-01-08T16:10:20.969Z,1038.93
2018-01-08T16:11:48.001Z,1038.92
2018-01-08T16:13:15.207Z,1038.93
2018-01-08T16:14:42.312Z,1038.95
2018-01-08T16:16:09.421Z,1038.93
2018-01-08T16:17:36.516Z,1038.92
2018-01-08T16:19:03.357Z,1038.92
2018-01-08T16:20:30.592Z,1038.93
2018-01-08T16:21:58.073Z,1038.91
2018-01-08T16:23:25.036Z,1038.89
2018-01-08T16:24:52.043Z,1038.85
2018-01-08T16:26:19.046Z,1038.86
2018-01-08T16:27:45.770Z,1038.86
2018-01-08T16:29:13.024Z,1038.89
2018-01-08T16:30:40.218Z,1038.93
2018-01-08T16:32:07.376Z,1038.88
2018-01-08T16:33:35.131Z,1038.87
2018-01-08T16:35:01.412Z,1038.89
2018-01-08T16:36:28.391Z,1038.91
2018-01-08T16:37:55.487Z,1038.90
2018-01-08T16:39:22.096Z,1038.91
2018-01-08T16:40:49.080Z,1038.90
2018-01-08T16:42:16.096Z,1038.92
2018-01-08T16:43:43.301Z,1038.92
2018-01-08T16:45:10.660Z,1038.88
2018-01-08T16:46:38.471Z,1038.87
2018-01-08T16:48:05.152Z,1038.84
2018-01-08T16:49:31.664Z,1038.83
2018-01-08T16:50:58.914Z,1038.83
2018-01-08T16:52:25.973Z,1038.81
2018-01-08T16:53:52.781Z,1038.81
2018-01-08T16:55:19.803Z,1038.82
2018-01-08T16:56:46.789Z,1038.82
2018-01-08T16:58:13.696Z,1038.83
2018-01-08T16:59:41.252Z,1038.87
2018-01-08T17:01:08.834Z,1038.87
2018-01-08T17:02:35.633Z,1038.83
2018-01-08T17:04:02.218Z,1038.79
2018-01-08T17:05:29.439Z,1038.78
2018-01-08T17:06:56.470Z,1038.76
2018-01-08T17:08:23.221Z,1038.75
2018-01-08T17:09:50.114Z,1038.77
2018-01-08T17:11:17.236Z,1038.77
2018-01-08T17:12:44.134Z,1038.81
2018-01-08T17:14:11.687Z,1038.76
2018-01-08T17:15:38.409Z,1038.76
2018-01-08T17:17:06.010Z,1038.75
2018-01-08T17:18:32.483Z,1038.77
2018-01-08T17:19:59.492Z,1038.76
2018-01-08T17:21:26.579Z,1038.77
2018-01-08T17:22:53.608Z,1038.77
2018-01-08T17:24:20.564Z,1038.73
2018-01-08T17:25:47.506Z,1038.73
2018-01-08T17:27:14.279Z,1038.74
2018-01-08T17:28:41.667Z,1038.70
2018-01-08T17:30:09.175Z,1038.69
2018-01-08T17:31:37.158Z,1038.64
2018-01-08T17:33:02.423Z,1038.68
2018-01-08T17:34:29.669Z,1038.65